Detall de PIREP

Printer-friendly versionPDF version

[2013/04/20 10:02:00]
Flight IATA:CT2115
Pilot Number:044
Company ICAO:CAT
Aircraft Type:AT72/F
PAX:40
Departing Airport: LEXJ
Destination Airport: LEVC
Alternate Airport:LEAB
Online: VATSIM
Route:TITAN B42 DISKO/F220 A33 CENTA DCT MANDY
Flight Level:F230
No Slew and time accel
No pause
Crash detect
Detect pilot in Cockpit between each 30 and 45 minutes
10:02 Zero fuel Weight: 39664 Lbs, Fuel Weight: 5511 Lbs
10:02 VATSIM:LEXJ 200930Z VRB01KT 9999 SCT025 12/05 Q1029
10:02 VATSIM:LEVC 200930Z VRB01KT CAVOK 17/03 Q1023 NOSIG
10:02 VOICE CATALONIAN
10:06 Parking Brakes off
10:13 Take-off
10:13 Take off Weight: 45092 Lbs
10:13 Wind: 040º @ 005 Knots Heading: 108º
10:13 POS N43º 25´ 33´´ W003º 48´ 57´´
10:13 Flaps:1 at 138 Knots
10:13 Gear Up: 137 Knots
10:13 Flaps:0 at 131 Knots
10:28 Wind:067º@046 Knots Heading: 174º Ground Speed: 247 Knots Altitude 21893 ft
10:29 TOC
10:29 Fuel Weight: 4884 Lb
10:43 Wind:069º@049 Knots Heading: 175º Ground Speed: 299 Knots Altitude 23339 ft
10:50 TOD
10:50 Fuel Weight: 4290 Lb
10:58 Wind:066º@043 Knots Heading: 110º Ground Speed: 249 Knots Altitude 22316 ft
11:13 Wind:057º@029 Knots Heading: 113º Ground Speed: 274 Knots Altitude 21079 ft
11:28 Wind:109º@011 Knots Heading: 095º Ground Speed: 181 Knots Altitude 5958 ft
11:38 Gear Down: 186 Knots
11:38 Flaps:1 at 181 Knots
11:39 Flaps:2 at 137 Knots
11:42 TouchDown:Rate -138 ft/min Speed: 110 Knots
11:42 VATSIM:LEVC 201130Z 13007KT 090V190 9999 FEW040 18/03 Q1022 NOSIG
11:42 Land
11:42 Wind:151º@007 Knots
11:42 Heading: 117º
11:42 Flight Duration: 01:29
11:42 Landing Weight: 42922 Lbs
11:42 POS N39º 29´ 26´´ W000º 29´ 07´´
11:45 Parking brakes on
11:45 Block to Block Duration: 01:39
11:45 Final Fuel: 3240 Lbls
11:45 Spent Fuel: 2270 Lbls
11:45 Flight Length: 351 NM
11:45 TOD Land Length: 192 NM

Exportar CSV

Powered by Drupal - Modified by Danger4k